Aviation Digital Data Service (ADDS)

Output produced by METARs form (0619 UTC 24 May 2022)
found at http://aviationweather.gov/metar/data/
 
EDDP 240550Z 25013KT 9999 FEW017 SCT040 17/13 Q1003 NOSIG
TAF EDDP 240500Z 2406/2506 24010KT 9999 SCT045 
     PROB30 
     TEMPO 2411/2415 27015G25KT SHRA BKN030CB 
     BECMG 2418/2420 27004KT